Time;durP1;ratioP1;P1;durP2;ratioP2;P2;SDS_P1;SDS_P2;PMS_P1;PMS_P2;Temp;Humidity;BMP_temperature;BMP_pressure;BME280_temperature;BME280_humidity;BME280_pressure;Samples;Min_cycle;Max_cycle;Signal;HPM_P1;HPM_P2
2024/01/21 00:00:52;;;;;;;17.42;10.00;;;;;;;0.84;100.00;101741.03;5135335;27;20480;-47
2024/01/21 00:03:21;;;;;;;16.52;9.75;;;;;;;0.61;100.00;101743.56;5134455;27;20051;-43
2024/01/21 00:05:49;;;;;;;20.25;10.07;;;;;;;0.75;100.00;101739.22;5135013;27;20046;-45
2024/01/21 00:08:18;;;;;;;22.23;10.13;;;;;;;0.66;100.00;101746.19;5135071;27;20043;-46
2024/01/21 00:10:46;;;;;;;18.77;10.93;;;;;;;0.61;100.00;101742.69;5134920;27;20141;-46
2024/01/21 00:13:15;;;;;;;17.60;10.07;;;;;;;0.45;100.00;101739.97;5134723;27;20045;-46
2024/01/21 00:15:43;;;;;;;19.38;9.80;;;;;;;0.31;100.00;101746.94;5135288;27;20070;-46
2024/01/21 00:18:13;;;;;;;18.63;9.77;;;;;;;0.33;100.00;101739.06;5135159;27;20134;-46
2024/01/21 00:20:45;;;;;;;20.48;10.30;;;;;;;0.23;100.00;101740.75;5135143;27;20190;-46
2024/01/21 00:23:14;;;;;;;19.20;10.25;;;;;;;0.18;100.00;101737.19;5135313;27;20353;-45
2024/01/21 00:25:42;;;;;;;17.85;9.57;;;;;;;0.19;100.00;101738.94;5134774;27;20089;-45
2024/01/21 00:28:10;;;;;;;18.92;9.80;;;;;;;0.14;100.00;101738.06;5134759;27;20457;-45
2024/01/21 00:30:41;;;;;;;22.42;10.65;;;;;;;0.12;100.00;101745.06;5134846;27;20047;-44
2024/01/21 00:33:10;;;;;;;17.38;10.00;;;;;;;0.10;100.00;101747.69;5135007;27;20085;-47
2024/01/21 00:35:43;;;;;;;17.25;9.38;;;;;;;0.19;100.00;101742.50;5134869;27;20079;-46
2024/01/21 00:38:12;;;;;;;19.13;9.98;;;;;;;0.27;100.00;101739.88;5134533;27;20138;-45
2024/01/21 00:40:40;;;;;;;17.67;9.43;;;;;;;0.38;100.00;101743.44;5134151;27;20057;-46
2024/01/21 00:43:09;;;;;;;18.65;9.27;;;;;;;0.30;100.00;101744.28;5134459;27;20476;-48
2024/01/21 00:45:38;;;;;;;17.70;9.57;;;;;;;0.32;100.00;101739.94;5134486;27;20545;-45
2024/01/21 00:48:07;;;;;;;17.02;9.77;;;;;;;0.40;100.00;101739.09;5134493;27;20125;-45
2024/01/21 00:50:36;;;;;;;17.50;10.00;;;;;;;0.32;100.00;101738.19;5135000;27;20399;-45
2024/01/21 00:53:08;;;;;;;22.23;10.05;;;;;;;0.28;100.00;101733.75;5134060;27;20049;-47
2024/01/21 00:55:36;;;;;;;21.85;10.50;;;;;;;0.31;100.00;101741.69;5134524;27;20070;-46
2024/01/21 00:58:08;;;;;;;21.10;9.57;;;;;;;0.19;100.00;101736.34;5134237;27;20500;-44
2024/01/21 01:00:36;;;;;;;17.10;9.77;;;;;;;0.29;100.00;101740.78;5134518;27;20142;-45
2024/01/21 01:03:08;;;;;;;19.05;10.15;;;;;;;0.36;100.00;101742.56;5133688;27;20055;-46
2024/01/21 01:05:39;;;;;;;18.88;9.93;;;;;;;0.42;100.00;101736.47;5133950;27;20051;-45
2024/01/21 01:08:18;;;;;;;20.80;9.65;;;;;;;0.61;100.00;101733.06;5134135;27;20046;-45
2024/01/21 01:10:46;;;;;;;15.95;9.27;;;;;;;0.68;100.00;101728.72;5133717;27;20092;-46
2024/01/21 01:13:15;;;;;;;17.35;9.65;;;;;;;0.67;100.00;101732.19;5133472;27;20108;-45
2024/01/21 01:15:43;;;;;;;16.25;9.38;;;;;;;0.70;100.00;101732.22;5133620;27;20066;-45
2024/01/21 01:18:13;;;;;;;17.83;9.20;;;;;;;0.67;100.00;101730.44;5133743;27;20127;-45
2024/01/21 01:20:42;;;;;;;18.20;9.48;;;;;;;0.70;100.00;101732.22;5133823;27;20175;-46
2024/01/21 01:23:14;;;;;;;18.52;9.15;;;;;;;0.68;100.00;101731.34;5133953;27;20043;-45
2024/01/21 01:25:47;;;;;;;16.70;8.40;;;;;;;0.71;100.00;101728.72;5133614;27;20050;-44
2024/01/21 01:28:15;;;;;;;18.70;9.77;;;;;;;0.72;100.00;101723.47;5133262;27;20047;-45
2024/01/21 01:30:44;;;;;;;17.05;9.02;;;;;;;0.62;100.00;101726.06;5133387;27;20051;-45
2024/01/21 01:33:12;;;;;;;15.80;8.82;;;;;;;0.57;100.00;101718.16;5134478;27;20077;-45
2024/01/21 01:35:41;;;;;;;14.98;8.50;;;;;;;0.52;100.00;101722.53;5133794;27;20078;-46
2024/01/21 01:38:12;;;;;;;18.15;9.48;;;;;;;0.39;100.00;101720.72;5133835;27;20442;-44
2024/01/21 01:40:40;;;;;;;17.60;9.40;;;;;;;0.31;100.00;101715.44;5133835;27;20092;-47
2024/01/21 01:43:12;;;;;;;20.30;9.82;;;;;;;0.21;100.00;101711.00;5133691;27;20118;-46
2024/01/21 01:45:42;;;;;;;17.08;9.13;;;;;;;0.28;100.00;101718.00;5134395;27;20043;-46
2024/01/21 01:48:13;;;;;;;17.17;8.90;;;;;;;0.25;100.00;101728.50;5133525;27;20082;-44
2024/01/21 01:50:45;;;;;;;20.52;9.65;;;;;;;0.32;100.00;101730.31;5132885;27;20058;-46
2024/01/21 01:53:14;;;;;;;19.25;9.35;;;;;;;0.44;100.00;101729.47;5133317;27;20170;-45
2024/01/21 01:55:45;;;;;;;17.08;8.85;;;;;;;0.57;100.00;101737.41;5133434;27;20614;-46
2024/01/21 01:58:19;;;;;;;17.83;8.88;;;;;;;0.60;100.00;101735.69;5133988;28;20065;-46
2024/01/21 02:00:48;;;;;;;16.52;8.82;;;;;;;0.70;100.00;101740.97;5132430;27;20499;-46
2024/01/21 02:03:17;;;;;;;15.80;9.20;;;;;;;0.59;100.00;101742.69;5133110;27;20039;-46
2024/01/21 02:05:45;;;;;;;17.33;8.95;;;;;;;0.63;100.00;101740.94;5133711;28;20051;-46
2024/01/21 02:08:15;;;;;;;13.90;8.30;;;;;;;0.50;100.00;101745.28;5133350;27;20043;-49
2024/01/21 02:10:43;;;;;;;16.67;9.15;;;;;;;0.53;100.00;101748.78;5133629;27;20134;-48
2024/01/21 02:13:12;;;;;;;18.33;9.10;;;;;;;0.54;100.00;101747.03;5131879;28;20039;-44
2024/01/21 02:15:44;;;;;;;18.30;9.07;;;;;;;0.51;100.00;101747.91;5131855;27;20043;-47
2024/01/21 02:18:13;;;;;;;16.92;8.82;;;;;;;0.42;100.00;101755.72;5131790;27;20096;-46
2024/01/21 02:20:42;;;;;;;15.30;8.02;;;;;;;0.05;100.00;101754.63;5132455;27;20050;-47
2024/01/21 02:23:14;;;;;;;18.20;8.95;;;;;;;0.00;100.00;101753.72;5130912;27;20039;-45
2024/01/21 02:25:46;;;;;;;15.18;8.82;;;;;;;-0.06;100.00;101764.16;5132997;27;20104;-44
2024/01/21 02:28:14;;;;;;;17.52;8.77;;;;;;;-0.04;100.00;101763.31;5132050;27;20055;-46
2024/01/21 02:30:42;;;;;;;18.67;9.52;;;;;;;-0.11;100.00;101769.38;5133403;27;20051;-47
2024/01/21 02:33:11;;;;;;;18.27;9.13;;;;;;;-0.03;100.00;101775.56;5133232;27;20051;-45
2024/01/21 02:35:39;;;;;;;17.33;9.40;;;;;;;-0.12;100.00;101780.72;5133037;27;20130;-45
2024/01/21 02:38:13;;;;;;;16.65;9.10;;;;;;;-0.10;100.00;101776.38;5133103;27;20046;-47
2024/01/21 02:40:42;;;;;;;;;;;;;;;-0.15;100.00;101771.97;5133682;27;20093;-47
2024/01/21 02:43:10;;;;;;;18.02;9.05;;;;;;;-0.17;100.00;101774.59;5132852;27;20391;-46
2024/01/21 02:45:38;;;;;;;19.15;9.80;;;;;;;-0.13;100.00;101762.34;5132773;27;20103;-48
2024/01/21 02:48:08;;;;;;;18.88;8.77;;;;;;;-0.21;100.00;101778.03;5132789;27;20373;-45
2024/01/21 02:50:36;;;;;;;17.73;9.65;;;;;;;-0.22;100.00;101768.41;5132959;27;20138;-46
2024/01/21 02:53:05;;;;;;;19.27;9.90;;;;;;;-0.23;100.00;101782.38;5134194;27;20047;-46
2024/01/21 02:55:34;;;;;;;17.13;9.43;;;;;;;-0.28;100.00;101784.13;5134849;27;20047;-48
2024/01/21 02:58:04;;;;;;;20.85;10.55;;;;;;;-0.45;100.00;101788.31;5135776;27;20504;-45
2024/01/21 03:00:32;;;;;;;17.00;9.65;;;;;;;-0.42;100.00;101790.97;5136563;27;20103;-54
2024/01/21 03:03:01;;;;;;;18.08;9.15;;;;;;;-0.35;100.00;101787.53;5139783;27;20039;-47
2024/01/21 03:05:29;;;;;;;22.83;10.10;;;;;;;-0.37;100.00;101790.16;5137368;27;20055;-47
2024/01/21 03:07:57;;;;;;;22.77;10.68;;;;;;;-0.31;100.00;101789.31;5137447;27;20050;-46
2024/01/21 03:10:29;;;;;;;20.55;9.70;;;;;;;-0.15;100.00;101778.09;5136644;27;20111;-46
2024/01/21 03:13:00;;;;;;;17.92;9.55;;;;;;;-0.01;100.00;101779.06;5136581;27;20051;-44
2024/01/21 03:15:30;;;;;;;18.98;9.25;;;;;;;0.09;100.00;101779.13;5135275;27;20135;-46
2024/01/21 03:17:58;;;;;;;18.55;9.95;;;;;;;0.10;100.00;101787.03;5136017;27;20043;-47
2024/01/21 03:20:30;;;;;;;18.50;9.23;;;;;;;0.04;100.00;101788.72;5137197;27;20062;-47
2024/01/21 03:22:58;;;;;;;17.27;9.63;;;;;;;0.09;100.00;101790.50;5135689;27;20084;-46
2024/01/21 03:25:27;;;;;;;18.98;9.15;;;;;;;0.05;100.00;101791.34;5136298;27;20043;-46
2024/01/21 03:27:58;;;;;;;18.17;9.93;;;;;;;-0.10;100.00;101804.34;5135764;27;20051;-46
2024/01/21 03:30:30;;;;;;;19.75;10.45;;;;;;;0.12;100.00;101808.03;5136701;27;20480;-46
2024/01/21 03:32:59;;;;;;;17.38;9.85;;;;;;;-0.13;100.00;101815.69;5137159;27;20078;-47
2024/01/21 03:35:28;;;;;;;17.48;9.45;;;;;;;-0.03;100.00;101817.53;5136746;27;20143;-45
2024/01/21 03:37:58;;;;;;;19.50;10.20;;;;;;;-0.10;100.00;101820.94;5136457;27;20099;-47
2024/01/21 03:40:26;;;;;;;20.20;10.25;;;;;;;-0.18;100.00;101832.28;5136533;27;20054;-46
2024/01/21 03:43:00;;;;;;;21.55;10.75;;;;;;;-0.36;100.00;101827.72;5136871;27;20051;-46
2024/01/21 03:45:28;;;;;;;17.95;10.10;;;;;;;-0.52;100.00;101828.44;5136753;27;20043;-49
2024/01/21 03:47:57;;;;;;;23.02;11.82;;;;;;;-0.68;100.00;101824.75;5136390;27;20500;-46
2024/01/21 03:50:29;;;;;;;21.23;11.23;;;;;;;-0.60;100.00;101833.59;5135404;27;20043;-45
2024/01/21 03:52:57;;;;;;;21.65;11.95;;;;;;;-0.59;100.00;101830.97;5135462;27;20552;-46
2024/01/21 03:55:25;;;;;;;20.08;11.82;;;;;;;-0.46;100.00;101834.63;5135640;27;20079;-47
2024/01/21 03:57:54;;;;;;;19.25;10.88;;;;;;;-0.39;100.00;101840.78;5135825;27;20134;-46
2024/01/21 04:00:26;;;;;;;20.58;10.85;;;;;;;-0.46;100.00;101841.63;5135891;27;20127;-45
2024/01/21 04:02:54;;;;;;;19.08;11.30;;;;;;;-0.42;100.00;101835.53;5135791;27;20456;-45
2024/01/21 04:05:25;;;;;;;23.95;11.75;;;;;;;-0.33;100.00;101838.25;5135006;27;20051;-45
2024/01/21 04:07:55;;;;;;;24.52;12.45;;;;;;;-0.54;100.00;101838.03;5135694;27;20047;-45
2024/01/21 04:10:23;;;;;;;24.05;11.77;;;;;;;-0.84;100.00;101839.44;5135025;27;20416;-46
2024/01/21 04:12:55;;;;;;;22.27;11.43;;;;;;;-0.99;100.00;101828.78;5135463;27;20072;-46
2024/01/21 04:15:25;;;;;;;20.15;11.05;;;;;;;-0.76;100.00;101837.81;5135849;27;20529;-45
2024/01/21 04:17:56;;;;;;;22.73;12.13;;;;;;;-0.80;100.00;101843.84;5135476;27;20498;-45
2024/01/21 04:20:25;;;;;;;22.15;11.32;;;;;;;-0.84;100.00;101828.97;5136106;27;20051;-45
2024/01/21 04:22:57;;;;;;;19.15;11.07;;;;;;;-0.96;100.00;101823.59;5135295;27;20047;-45
2024/01/21 04:25:26;;;;;;;22.95;11.95;;;;;;;-1.01;100.00;101822.66;5135699;27;20043;-46
2024/01/21 04:27:54;;;;;;;22.88;12.20;;;;;;;-1.08;100.00;101823.44;5135674;27;20104;-45
2024/01/21 04:30:27;;;;;;;21.30;11.60;;;;;;;-1.05;100.00;101821.75;5135375;27;20047;-45
2024/01/21 04:32:56;;;;;;;24.33;11.40;;;;;;;-1.05;100.00;101823.47;5135740;27;20137;-46
2024/01/21 04:35:24;;;;;;;20.45;11.35;;;;;;;-1.08;100.00;101819.06;5136272;27;20076;-45
2024/01/21 04:37:55;;;;;;;21.35;11.18;;;;;;;-1.03;100.00;101825.25;5135348;27;20389;-45
2024/01/21 04:40:23;;;;;;;23.30;10.88;;;;;;;-1.06;100.00;101817.38;5135795;27;20168;-45
2024/01/21 04:42:52;;;;;;;22.05;11.10;;;;;;;-1.03;100.00;101827.00;5134573;27;20046;-45
2024/01/21 04:45:20;;;;;;;21.88;11.40;;;;;;;-1.10;100.00;101825.16;5135747;27;20043;-46
2024/01/21 04:47:48;;;;;;;24.60;12.02;;;;;;;-1.20;100.00;101814.56;5134996;27;20050;-44
2024/01/21 04:50:17;;;;;;;23.20;11.60;;;;;;;-1.03;100.00;101819.13;5135440;27;20043;-45
2024/01/21 04:52:45;;;;;;;19.55;10.90;;;;;;;-1.10;100.00;101819.91;5134959;27;20051;-46
2024/01/21 04:55:15;;;;;;;23.90;11.30;;;;;;;-1.06;100.00;101825.22;5134532;27;20051;-45
2024/01/21 04:57:43;;;;;;;23.40;12.07;;;;;;;-1.03;100.00;101827.88;5134300;27;20053;-46
2024/01/21 05:00:13;;;;;;;19.90;10.95;;;;;;;-0.92;100.00;101828.00;5135156;27;20065;-45
2024/01/21 05:02:41;;;;;;;20.00;11.43;;;;;;;-0.88;100.00;101829.78;5135062;27;20051;-45
2024/01/21 05:05:12;;;;;;;22.42;11.75;;;;;;;-0.96;100.00;101834.06;5134914;27;20433;-47
2024/01/21 05:07:43;;;;;;;21.23;11.15;;;;;;;-1.00;100.00;101832.25;5134405;27;20043;-48
2024/01/21 05:10:11;;;;;;;19.98;10.75;;;;;;;-0.90;100.00;101839.38;5134105;27;20039;-50
2024/01/21 05:12:50;;;;;;;18.75;10.82;;;;;;;-0.97;100.00;101848.88;5134359;27;20046;-46
2024/01/21 05:15:21;;;;;;;19.95;10.30;;;;;;;-1.00;100.00;101841.00;5133159;27;20104;-45
2024/01/21 05:17:49;;;;;;;22.83;11.52;;;;;;;-0.81;100.00;101849.09;5134759;27;20039;-47
2024/01/21 05:20:18;;;;;;;21.73;11.48;;;;;;;-0.78;100.00;101852.59;5134312;27;20054;-45
2024/01/21 05:22:47;;;;;;;19.52;10.77;;;;;;;-0.69;100.00;101852.72;5134518;27;20096;-46
2024/01/21 05:25:18;;;;;;;21.80;11.75;;;;;;;-0.80;100.00;101851.72;5134399;27;20039;-45
2024/01/21 05:27:50;;;;;;;23.08;11.32;;;;;;;-0.81;100.00;101855.19;5133728;27;20085;-47
2024/01/21 05:30:19;;;;;;;21.48;10.95;;;;;;;-0.80;100.00;101856.97;5133923;27;20054;-44
2024/01/21 05:32:50;;;;;;;21.58;11.02;;;;;;;-0.81;100.00;101857.81;5132624;27;20051;-47
2024/01/21 05:35:19;;;;;;;23.77;11.15;;;;;;;-0.79;100.00;101856.09;5133801;27;20043;-46
2024/01/21 05:37:47;;;;;;;20.50;10.68;;;;;;;-0.80;100.00;101859.56;5133938;27;20047;-47
2024/01/21 05:40:16;;;;;;;19.73;10.80;;;;;;;-0.70;100.00;101871.03;5134062;27;20100;-46
2024/01/21 05:42:44;;;;;;;20.52;11.00;;;;;;;-0.75;100.00;101873.63;5134293;27;20043;-47
2024/01/21 05:45:13;;;;;;;23.73;11.18;;;;;;;-0.79;100.00;101877.06;5134118;27;20107;-46
2024/01/21 05:47:42;;;;;;;18.88;11.05;;;;;;;-0.85;100.00;101879.63;5133121;27;20054;-46
2024/01/21 05:50:11;;;;;;;20.85;11.50;;;;;;;-0.92;100.00;101872.53;5134302;27;20043;-46
2024/01/21 05:52:39;;;;;;;19.45;10.30;;;;;;;-0.95;100.00;101888.22;5134260;27;20046;-47
2024/01/21 05:55:09;;;;;;;20.45;10.93;;;;;;;-0.92;100.00;101885.63;5134167;27;20088;-45
2024/01/21 05:57:38;;;;;;;21.33;11.25;;;;;;;-0.91;100.00;101888.25;5133861;27;20097;-46
2024/01/21 06:00:08;;;;;;;20.80;11.18;;;;;;;-0.76;100.00;101898.06;5133319;27;20039;-45
2024/01/21 06:02:38;;;;;;;19.88;10.95;;;;;;;-0.67;100.00;101899.94;5133666;27;20039;-46
2024/01/21 06:05:08;;;;;;;20.58;10.60;;;;;;;-0.87;100.00;101904.88;5133129;27;20138;-45
2024/01/21 06:07:41;;;;;;;22.98;11.25;;;;;;;-0.81;100.00;101910.22;5133822;27;20129;-46
2024/01/21 06:10:13;;;;;;;22.15;10.93;;;;;;;-0.85;100.00;101911.06;5133844;27;20039;-47
2024/01/21 06:12:41;;;;;;;23.15;11.52;;;;;;;-0.84;100.00;101912.81;5133267;27;20047;-45
2024/01/21 06:15:12;;;;;;;19.73;11.35;;;;;;;-1.11;100.00;101917.66;5133008;27;20047;-45
2024/01/21 06:17:42;;;;;;;22.65;11.50;;;;;;;-1.05;100.00;101926.50;5133469;27;20043;-46
2024/01/21 06:20:12;;;;;;;21.65;11.07;;;;;;;-1.01;100.00;101924.78;5133517;27;20532;-46
2024/01/21 06:22:40;;;;;;;23.73;11.20;;;;;;;-1.10;100.00;101929.91;5133333;28;20047;-46
2024/01/21 06:25:10;;;;;;;22.15;11.38;;;;;;;-1.10;100.00;101936.03;5134278;27;20047;-45
2024/01/21 06:27:39;;;;;;;23.20;10.93;;;;;;;-1.07;100.00;101932.56;5132338;27;20392;-46
2024/01/21 06:30:14;;;;;;;22.73;11.45;;;;;;;-1.04;100.00;101938.75;5133460;27;20043;-46
2024/01/21 06:32:47;;;;;;;21.50;11.27;;;;;;;-1.02;100.00;101944.88;5134009;27;20436;-46
2024/01/21 06:35:29;;;;;;;24.85;12.55;;;;;;;-0.99;100.00;101938.78;5134705;27;20403;-47
2024/01/21 06:37:58;;;;;;;22.88;11.52;;;;;;;-0.96;100.00;101933.63;5137415;27;20051;-46
2024/01/21 06:40:26;;;;;;;24.70;12.00;;;;;;;-0.82;100.00;101937.28;5137735;27;20551;-46
2024/01/21 06:42:55;;;;;;;22.48;11.63;;;;;;;-0.76;100.00;101942.63;5137433;27;20054;-47
2024/01/21 06:45:24;;;;;;;24.75;11.80;;;;;;;-0.73;100.00;101941.78;5137748;27;20043;-45
2024/01/21 06:47:54;;;;;;;23.33;11.20;;;;;;;-0.70;100.00;101934.81;5138059;27;20047;-46
2024/01/21 06:50:29;;;;;;;18.52;10.70;;;;;;;-0.45;100.00;101936.00;5136260;27;20061;-47
2024/01/21 06:53:00;;;;;;;23.50;11.27;;;;;;;-0.50;100.00;101940.28;5137445;27;20123;-46
2024/01/21 06:55:28;;;;;;;19.50;11.02;;;;;;;-0.59;100.00;101945.44;5137406;27;20054;-47
2024/01/21 06:57:57;;;;;;;20.77;11.20;;;;;;;-0.56;100.00;101945.50;5137952;27;20138;-45
2024/01/21 07:00:27;;;;;;;22.88;11.10;;;;;;;-0.40;100.00;101950.03;5137373;27;20053;-47
2024/01/21 07:03:02;;;;;;;21.33;11.15;;;;;;;-0.61;100.00;101957.63;5137414;27;20087;-46
2024/01/21 07:05:30;;;;;;;24.13;12.43;;;;;;;-0.59;100.00;101953.28;5137193;27;20043;-47
2024/01/21 07:08:12;;;;;;;23.35;11.75;;;;;;;-0.34;100.00;101955.34;5134526;27;20051;-46
2024/01/21 07:10:41;;;;;;;22.55;11.90;;;;;;;-0.54;100.00;101956.00;5137303;27;20093;-46
2024/01/21 07:13:09;;;;;;;24.75;12.48;;;;;;;-0.33;100.00;101951.00;5137058;27;20050;-47
2024/01/21 07:15:38;;;;;;;29.70;13.07;;;;;;;-0.51;100.00;101958.63;5136714;27;20407;-47
2024/01/21 07:18:09;;;;;;;20.92;11.70;;;;;;;-0.59;100.00;101956.78;5137403;27;20043;-46
2024/01/21 07:20:37;;;;;;;23.02;12.20;;;;;;;-0.78;100.00;101965.28;5136521;27;20548;-47
2024/01/21 07:23:08;;;;;;;22.20;12.02;;;;;;;-0.53;100.00;101966.50;5136397;27;20063;-47
2024/01/21 07:25:39;;;;;;;23.75;12.88;;;;;;;-0.29;100.00;101971.13;5136731;27;20047;-46
2024/01/21 07:28:10;;;;;;;21.48;12.68;;;;;;;-0.41;100.00;101971.88;5136853;27;20055;-48
2024/01/21 07:30:45;;;;;;;24.90;12.27;;;;;;;-0.28;100.00;101979.91;5135724;27;20051;-46
2024/01/21 07:33:15;;;;;;;23.98;12.70;;;;;;;-0.37;100.00;101983.28;5136533;27;20051;-46
2024/01/21 07:35:45;;;;;;;27.52;13.90;;;;;;;-0.45;100.00;101980.56;5137064;27;20043;-47
2024/01/21 07:38:16;;;;;;;25.17;13.05;;;;;;;-0.48;100.00;101977.00;5135638;27;20055;-46
2024/01/21 07:40:45;;;;;;;28.02;13.55;;;;;;;-0.48;100.00;101990.13;5136483;27;20134;-45
2024/01/21 07:43:13;;;;;;;25.05;14.15;;;;;;;-0.47;100.00;101981.44;5136392;27;20104;-46
2024/01/21 07:45:42;;;;;;;25.60;13.70;;;;;;;-0.43;100.00;101984.09;5135470;27;20134;-49
2024/01/21 07:48:13;;;;;;;28.40;14.90;;;;;;;-0.52;100.00;101983.09;5133923;27;20043;-46
2024/01/21 07:50:45;;;;;;;28.00;14.18;;;;;;;-0.32;100.00;101982.47;5135286;27;20043;-45
2024/01/21 07:53:13;;;;;;;35.50;15.75;;;;;;;-0.13;100.00;101983.56;5134926;27;20408;-46
2024/01/21 07:55:43;;;;;;;32.17;15.50;;;;;;;-0.10;100.00;101985.34;5135401;27;20169;-45
2024/01/21 07:58:15;;;;;;;30.33;16.05;;;;;;;-0.05;100.00;101986.28;5134983;27;20043;-45
2024/01/21 08:00:44;;;;;;;29.58;15.00;;;;;;;-0.17;100.00;101992.28;5134612;27;20128;-45
2024/01/21 08:03:13;;;;;;;30.15;15.40;;;;;;;-0.20;100.00;101996.59;5134723;27;20087;-46
2024/01/21 08:05:45;;;;;;;25.67;14.35;;;;;;;0.12;100.00;101999.59;5134967;27;20043;-47
2024/01/21 08:08:14;;;;;;;26.83;13.90;;;;;;;0.21;100.00;101997.06;5135316;27;20055;-45
2024/01/21 08:10:42;;;;;;;24.13;12.77;;;;;;;0.12;100.00;101999.59;5135459;27;20050;-46
2024/01/21 08:13:14;;;;;;;23.70;13.48;;;;;;;0.08;100.00;102003.91;5134114;27;20047;-49
2024/01/21 08:15:43;;;;;;;23.67;13.52;;;;;;;-0.03;100.00;102011.66;5136046;27;20441;-44
2024/01/21 08:18:12;;;;;;;22.50;12.88;;;;;;;0.09;100.00;102005.66;5135484;27;20148;-44
2024/01/21 08:20:43;;;;;;;26.35;13.45;;;;;;;0.12;100.00;102015.31;5134651;27;20043;-45
2024/01/21 08:23:11;;;;;;;26.95;14.10;;;;;;;0.12;100.00;102012.72;5134395;27;20043;-45
2024/01/21 08:25:42;;;;;;;26.00;13.73;;;;;;;-0.13;100.00;102009.78;5135217;27;20130;-45
2024/01/21 08:28:10;;;;;;;27.80;14.00;;;;;;;0.11;100.00;102013.56;5134685;27;20047;-45
2024/01/21 08:30:39;;;;;;;25.48;14.10;;;;;;;0.20;100.00;102014.56;5133854;27;20446;-52
2024/01/21 08:33:08;;;;;;;23.98;13.95;;;;;;;0.24;100.00;102026.81;5133842;27;20496;-45
2024/01/21 08:35:37;;;;;;;23.98;12.93;;;;;;;0.26;100.00;102026.84;5134005;27;20049;-45
2024/01/21 08:38:07;;;;;;;23.38;12.27;;;;;;;0.43;100.00;102032.25;5133875;27;20160;-45
2024/01/21 08:40:36;;;;;;;20.45;11.60;;;;;;;0.45;100.00;102034.03;5134474;27;20411;-47
2024/01/21 08:43:04;;;;;;;21.08;12.10;;;;;;;0.59;100.00;102046.44;5133927;27;20046;-45
2024/01/21 08:45:33;;;;;;;25.42;13.35;;;;;;;0.33;100.00;102041.78;5133830;27;20134;-45
2024/01/21 08:48:02;;;;;;;25.23;13.30;;;;;;;0.35;100.00;102055.81;5134000;27;20039;-45
2024/01/21 08:50:30;;;;;;;24.85;13.65;;;;;;;0.23;100.00;102060.94;5133869;27;20043;-45
2024/01/21 08:52:59;;;;;;;23.45;13.25;;;;;;;0.39;100.00;102062.88;5133665;27;20043;-44
2024/01/21 08:55:29;;;;;;;24.30;12.80;;;;;;;0.21;100.00;102060.03;5133563;27;20100;-46
2024/01/21 08:58:01;;;;;;;25.88;13.43;;;;;;;0.36;100.00;102061.94;5133233;27;20043;-45
2024/01/21 09:00:30;;;;;;;28.55;14.48;;;;;;;0.43;100.00;102067.28;5133484;27;20078;-46
2024/01/21 09:02:59;;;;;;;27.58;14.77;;;;;;;0.60;100.00;102071.81;5133571;27;20361;-44
2024/01/21 09:05:29;;;;;;;25.83;14.30;;;;;;;0.19;100.00;102074.88;5133714;27;20051;-45
2024/01/21 09:07:58;;;;;;;30.17;15.50;;;;;;;0.25;100.00;102070.56;5133665;27;20162;-46
2024/01/21 09:10:26;;;;;;;28.83;14.50;;;;;;;0.34;100.00;102061.94;5133619;27;20484;-46
2024/01/21 09:12:56;;;;;;;27.27;14.82;;;;;;;0.18;100.00;102074.00;5134260;27;20085;-45
2024/01/21 09:15:25;;;;;;;27.75;15.00;;;;;;;-0.03;100.00;102085.13;5132444;27;20047;-47
2024/01/21 09:17:53;;;;;;;27.77;14.93;;;;;;;0.32;100.00;102086.41;5133657;27;20039;-45
2024/01/21 09:20:21;;;;;;;30.67;15.52;;;;;;;0.54;100.00;102086.63;5133307;27;20086;-46
2024/01/21 09:22:50;;;;;;;29.25;15.68;;;;;;;0.71;100.00;102081.56;5131923;27;20412;-46
2024/01/21 09:25:20;;;;;;;30.00;15.93;;;;;;;0.65;100.00;102075.34;5132888;27;20062;-46
2024/01/21 09:27:48;;;;;;;29.10;14.57;;;;;;;0.53;100.00;102089.25;5131615;27;20139;-46
2024/01/21 09:30:18;;;;;;;29.55;15.50;;;;;;;0.71;100.00;102085.94;5132753;27;20046;-46
2024/01/21 09:32:46;;;;;;;29.77;15.15;;;;;;;0.82;100.00;102074.66;5132791;27;20039;-46
2024/01/21 09:35:14;;;;;;;32.63;15.35;;;;;;;1.05;100.00;102087.09;5133490;27;20050;-46
2024/01/21 09:37:43;;;;;;;28.42;14.93;;;;;;;0.88;100.00;102081.72;5132742;27;20119;-45
2024/01/21 09:40:13;;;;;;;28.52;15.85;;;;;;;1.11;100.00;102084.53;5133208;27;20043;-46
2024/01/21 09:42:43;;;;;;;26.98;15.00;;;;;;;1.05;100.00;102076.56;5133064;27;20096;-45
2024/01/21 09:45:12;;;;;;;27.38;14.88;;;;;;;1.02;100.00;102087.94;5132876;27;20475;-46
2024/01/21 09:47:53;;;;;;;27.38;14.45;;;;;;;0.81;100.00;102075.53;5133241;27;20075;-53
2024/01/21 09:50:22;;;;;;;27.50;14.70;;;;;;;0.71;100.00;102080.69;5133176;27;20051;-44
2024/01/21 09:52:57;;;;;;;22.83;12.77;;;;;;;0.52;100.00;102085.75;5133235;27;20047;-45
2024/01/21 09:55:26;;;;;;;24.90;13.20;;;;;;;0.76;100.00;102089.47;5133132;27;20441;-47
2024/01/21 09:57:58;;;;;;;24.13;12.70;;;;;;;0.98;100.00;102083.56;5131809;27;20066;-45
2024/01/21 10:00:31;;;;;;;28.20;13.48;;;;;;;1.13;100.00;102086.28;5132714;27;20178;-45
2024/01/21 10:03:00;;;;;;;28.77;14.35;;;;;;;1.38;100.00;102081.22;5132996;27;20487;-45
2024/01/21 10:05:31;;;;;;;25.20;13.18;;;;;;;1.55;100.00;102079.56;5133023;27;20146;-45
2024/01/21 10:07:59;;;;;;;27.00;14.65;;;;;;;1.64;100.00;102084.91;5132971;27;20058;-44
2024/01/21 10:10:28;;;;;;;26.85;14.13;;;;;;;1.39;100.00;102073.34;5134372;27;20047;-45
2024/01/21 10:12:56;;;;;;;28.50;14.07;;;;;;;1.38;100.00;102068.06;5137067;27;20051;-44
2024/01/21 10:15:24;;;;;;;26.58;13.77;;;;;;;1.44;100.00;102068.09;5136798;27;20479;-46
2024/01/21 10:17:53;;;;;;;25.92;13.23;;;;;;;1.54;100.00;102080.41;5137330;27;20044;-44
2024/01/21 10:20:23;;;;;;;26.77;14.50;;;;;;;1.65;100.00;102081.38;5137432;27;20115;-45
2024/01/21 10:22:52;;;;;;;27.98;14.82;;;;;;;1.42;100.00;102078.59;5136923;27;20131;-47
2024/01/21 10:25:21;;;;;;;25.13;13.45;;;;;;;1.46;100.00;102074.25;5137457;27;20503;-45
2024/01/21 10:27:53;;;;;;;30.67;15.15;;;;;;;1.63;100.00;102075.22;5136759;27;20051;-46
2024/01/21 10:30:21;;;;;;;26.98;13.93;;;;;;;1.49;100.00;102074.28;5137452;27;20553;-44
2024/01/21 10:32:50;;;;;;;27.05;14.57;;;;;;;1.70;100.00;102074.38;5136853;27;20368;-46
2024/01/21 10:35:24;;;;;;;26.27;13.80;;;;;;;1.69;100.00;102075.25;5136877;27;20043;-46
2024/01/21 10:37:53;;;;;;;24.80;13.35;;;;;;;1.78;100.00;102076.19;5136734;27;20575;-45
2024/01/21 10:40:23;;;;;;;24.73;13.32;;;;;;;1.90;100.00;102076.22;5136305;27;20047;-46
2024/01/21 10:42:58;;;;;;;27.60;14.00;;;;;;;1.67;100.00;102082.28;5136198;27;20039;-48
2024/01/21 10:45:27;;;;;;;23.75;13.40;;;;;;;1.53;100.00;102080.41;5136210;27;20043;-45
2024/01/21 10:47:58;;;;;;;24.35;13.63;;;;;;;1.77;100.00;102071.78;5136503;27;20058;-45
2024/01/21 10:50:28;;;;;;;25.42;13.38;;;;;;;1.76;100.00;102072.66;5136843;27;20039;-45
2024/01/21 10:52:59;;;;;;;26.88;12.88;;;;;;;1.70;100.00;102076.13;5135650;27;20460;-44
2024/01/21 10:55:29;;;;;;;26.42;13.75;;;;;;;1.87;100.00;102076.22;5136695;27;20408;-47
2024/01/21 10:57:57;;;;;;;28.67;14.30;;;;;;;2.14;100.00;102071.06;5136221;27;20480;-46
2024/01/21 11:00:26;;;;;;;24.90;13.68;;;;;;;1.98;100.00;102069.25;5136365;27;20167;-46
2024/01/21 11:03:25;;;;;;;24.95;13.27;;;;;;;2.22;100.00;102064.09;5136468;27;20121;-47
2024/01/21 11:06:00;;;;;;;23.08;13.05;;;;;;;2.08;100.00;102071.03;5136573;27;20061;-46
2024/01/21 11:08:30;;;;;;;26.17;13.20;;;;;;;1.99;100.00;102073.63;5136012;27;20054;-47
2024/01/21 11:11:02;;;;;;;23.67;12.57;;;;;;;2.15;100.00;102061.44;5136208;27;20043;-47
2024/01/21 11:13:40;;;;;;;24.10;13.20;;;;;;;2.34;100.00;102072.88;5136404;27;20464;-46
2024/01/21 11:16:11;;;;;;;25.67;12.88;;;;;;;2.11;100.00;102071.03;5135550;27;20051;-45
2024/01/21 11:18:42;;;;;;;25.40;13.43;;;;;;;2.38;100.00;102069.38;5135885;27;20081;-47